Terminal Aerodrome Forecast
Issued by NWS Newport/Morehead City, NC

Home | Current Version | Previous Version | Graphics & Text | Print | Product List | Glossary On
Versions: 1 2 3 4 5 6 7 8 9 10 11 12 13 14 15 16 17 18 19 20
000
FTUS42 KMHX 151500 AAB
TAFEWN
TAF AMD
KEWN 151517Z 1515/1612 20015G20KT P6SM SCT020 BKN090
     FM151800 19016G24KT P6SM VCSH SCT015 OVC110
     FM152000 20016G24KT P6SM SHRA VCTS SCT007 BKN025CB
     FM160200 34018G26KT P6SM -RA SCT007 BKN015
     FM160700 36014G22KT P6SM SCT025=

USA.gov is the U.S. government's official web portal to all federal, state and local government web resources and services.